sensor_id;sensor_type;location;lat;lon;timestamp;noise_LAeq;noise_LA_min;noise_LA_max;noise_LA01;noise_LA95
71230;Laerm;57282;52.514;13.458;2022-10-31T00:00:26;59.64;35.75;72.62;;
71230;Laerm;57282;52.514;13.458;2022-10-31T00:02:54;48.17;37.33;71.34;;
71230;Laerm;57282;52.514;13.458;2022-10-31T00:05:20;54.38;37.04;69.28;;
71230;Laerm;57282;52.514;13.458;2022-10-31T00:07:47;58.10;35.61;73.90;;
71230;Laerm;57282;52.514;13.458;2022-10-31T00:10:14;63.37;36.26;81.32;;
71230;Laerm;57282;52.514;13.458;2022-10-31T00:12:40;47.30;37.42;64.48;;
71230;Laerm;57282;52.514;13.458;2022-10-31T00:15:07;63.17;35.04;77.76;;
71230;Laerm;57282;52.514;13.458;2022-10-31T00:17:35;50.77;33.71;68.43;;
71230;Laerm;57282;52.514;13.458;2022-10-31T00:20:05;57.46;35.21;73.07;;
71230;Laerm;57282;52.514;13.458;2022-10-31T00:22:32;57.55;35.92;76.13;;
71230;Laerm;57282;52.514;13.458;2022-10-31T00:24:58;54.60;34.38;72.73;;
71230;Laerm;57282;52.514;13.458;2022-10-31T00:27:25;41.60;35.19;58.33;;
71230;Laerm;57282;52.514;13.458;2022-10-31T00:29:51;60.95;37.65;79.63;;
71230;Laerm;57282;52.514;13.458;2022-10-31T00:32:18;42.11;34.79;58.87;;
71230;Laerm;57282;52.514;13.458;2022-10-31T00:34:45;55.77;34.63;75.63;;
71230;Laerm;57282;52.514;13.458;2022-10-31T00:37:13;46.79;34.86;63.20;;
71230;Laerm;57282;52.514;13.458;2022-10-31T00:39:39;42.82;32.96;65.50;;
71230;Laerm;57282;52.514;13.458;2022-10-31T00:42:06;40.38;33.37;58.14;;
71230;Laerm;57282;52.514;13.458;2022-10-31T00:44:32;57.27;35.07;73.26;;
71230;Laerm;57282;52.514;13.458;2022-10-31T00:46:59;55.09;34.69;70.77;;
71230;Laerm;57282;52.514;13.458;2022-10-31T00:49:25;57.41;34.28;76.20;;
71230;Laerm;57282;52.514;13.458;2022-10-31T00:51:52;43.59;35.26;59.73;;
71230;Laerm;57282;52.514;13.458;2022-10-31T00:54:20;40.16;33.62;58.23;;
71230;Laerm;57282;52.514;13.458;2022-10-31T00:56:46;54.66;34.71;69.19;;
71230;Laerm;57282;52.514;13.458;2022-10-31T00:59:13;44.02;32.76;59.06;;
71230;Laerm;57282;52.514;13.458;2022-10-31T01:01:39;55.50;33.36;72.86;;
71230;Laerm;57282;52.514;13.458;2022-10-31T01:04:06;60.42;33.11;77.33;;
71230;Laerm;57282;52.514;13.458;2022-10-31T01:06:33;58.73;34.45;74.42;;
71230;Laerm;57282;52.514;13.458;2022-10-31T01:08:59;56.24;34.57;73.86;;
71230;Laerm;57282;52.514;13.458;2022-10-31T01:11:27;57.22;33.56;73.12;;
71230;Laerm;57282;52.514;13.458;2022-10-31T01:13:54;40.43;33.56;57.45;;
71230;Laerm;57282;52.514;13.458;2022-10-31T01:16:23;54.85;33.40;73.58;;
71230;Laerm;57282;52.514;13.458;2022-10-31T01:18:51;54.52;33.22;71.89;;
71230;Laerm;57282;52.514;13.458;2022-10-31T01:21:21;54.96;33.54;72.71;;
71230;Laerm;57282;52.514;13.458;2022-10-31T01:23:48;56.26;33.56;75.30;;
71230;Laerm;57282;52.514;13.458;2022-10-31T01:26:17;55.71;32.93;75.87;;
71230;Laerm;57282;52.514;13.458;2022-10-31T01:28:49;60.09;33.84;78.65;;
71230;Laerm;57282;52.514;13.458;2022-10-31T01:31:18;56.95;32.76;74.99;;
71230;Laerm;57282;52.514;13.458;2022-10-31T01:33:46;57.67;33.79;72.37;;
71230;Laerm;57282;52.514;13.458;2022-10-31T01:36:16;56.46;31.90;75.55;;
71230;Laerm;57282;52.514;13.458;2022-10-31T01:38:43;39.13;32.01;57.46;;
71230;Laerm;57282;52.514;13.458;2022-10-31T01:41:14;59.79;33.85;73.74;;
71230;Laerm;57282;52.514;13.458;2022-10-31T01:43:54;55.44;32.83;73.10;;
71230;Laerm;57282;52.514;13.458;2022-10-31T01:46:25;38.73;31.84;58.30;;
71230;Laerm;57282;52.514;13.458;2022-10-31T01:48:57;37.94;31.82;58.48;;
71230;Laerm;57282;52.514;13.458;2022-10-31T01:51:31;57.63;32.94;74.83;;
71230;Laerm;57282;52.514;13.458;2022-10-31T01:54:04;41.28;32.11;60.19;;
71230;Laerm;57282;52.514;13.458;2022-10-31T01:56:36;41.10;31.82;57.87;;
71230;Laerm;57282;52.514;13.458;2022-10-31T01:59:08;39.98;32.56;58.61;;
71230;Laerm;57282;52.514;13.458;2022-10-31T02:01:38;39.21;33.36;58.14;;
71230;Laerm;57282;52.514;13.458;2022-10-31T02:04:06;55.01;32.02;70.93;;
71230;Laerm;57282;52.514;13.458;2022-10-31T02:06:41;46.03;32.50;63.95;;
71230;Laerm;57282;52.514;13.458;2022-10-31T02:09:12;58.22;32.23;77.04;;
71230;Laerm;57282;52.514;13.458;2022-10-31T02:11:41;39.46;32.00;59.04;;
71230;Laerm;57282;52.514;13.458;2022-10-31T02:14:10;54.80;32.71;73.42;;
71230;Laerm;57282;52.514;13.458;2022-10-31T02:16:37;39.56;32.22;58.79;;
71230;Laerm;57282;52.514;13.458;2022-10-31T02:19:07;39.11;32.79;58.25;;
71230;Laerm;57282;52.514;13.458;2022-10-31T02:21:48;53.92;32.90;72.70;;
71230;Laerm;57282;52.514;13.458;2022-10-31T02:28:04;40.04;33.07;58.90;;
71230;Laerm;57282;52.514;13.458;2022-10-31T02:31:00;45.74;33.33;61.40;;
71230;Laerm;57282;52.514;13.458;2022-10-31T02:33:36;53.16;32.46;71.94;;
71230;Laerm;57282;52.514;13.458;2022-10-31T02:36:16;38.86;33.07;57.96;;
71230;Laerm;57282;52.514;13.458;2022-10-31T02:38:54;38.42;32.00;58.19;;
71230;Laerm;57282;52.514;13.458;2022-10-31T02:41:33;60.29;34.10;78.14;;
71230;Laerm;57282;52.514;13.458;2022-10-31T02:44:09;62.13;34.37;75.86;;
71230;Laerm;57282;52.514;13.458;2022-10-31T02:46:45;56.41;32.96;72.22;;
71230;Laerm;57282;52.514;13.458;2022-10-31T02:49:24;55.45;33.85;69.91;;
71230;Laerm;57282;52.514;13.458;2022-10-31T02:51:54;51.17;34.79;67.83;;
71230;Laerm;57282;52.514;13.458;2022-10-31T02:54:24;57.06;34.76;74.46;;
71230;Laerm;57282;52.514;13.458;2022-10-31T02:56:55;55.39;34.15;72.65;;
71230;Laerm;57282;52.514;13.458;2022-10-31T02:59:25;55.80;34.85;72.59;;
71230;Laerm;57282;52.514;13.458;2022-10-31T03:02:29;56.03;34.04;73.20;;
71230;Laerm;57282;52.514;13.458;2022-10-31T03:05:19;51.82;33.78;69.75;;
71230;Laerm;57282;52.514;13.458;2022-10-31T03:08:01;41.84;34.35;59.04;;
71230;Laerm;57282;52.514;13.458;2022-10-31T03:10:41;58.87;33.65;76.33;;
71230;Laerm;57282;52.514;13.458;2022-10-31T03:13:18;41.17;33.08;58.51;;
71230;Laerm;57282;52.514;13.458;2022-10-31T03:15:50;62.27;35.31;79.71;;
71230;Laerm;57282;52.514;13.458;2022-10-31T03:18:27;54.22;34.56;73.88;;
71230;Laerm;57282;52.514;13.458;2022-10-31T03:21:01;56.49;33.65;74.18;;
71230;Laerm;57282;52.514;13.458;2022-10-31T03:23:32;51.12;33.98;67.88;;
71230;Laerm;57282;52.514;13.458;2022-10-31T03:26:03;50.64;34.72;67.69;;
71230;Laerm;57282;52.514;13.458;2022-10-31T03:28:39;57.52;34.63;75.01;;
71230;Laerm;57282;52.514;13.458;2022-10-31T03:31:10;47.25;35.06;64.28;;
71230;Laerm;57282;52.514;13.458;2022-10-31T03:33:43;54.60;35.11;70.43;;
71230;Laerm;57282;52.514;13.458;2022-10-31T03:36:14;42.05;34.97;57.43;;
71230;Laerm;57282;52.514;13.458;2022-10-31T03:38:43;58.46;35.91;77.37;;
71230;Laerm;57282;52.514;13.458;2022-10-31T03:41:17;53.76;35.57;72.31;;
71230;Laerm;57282;52.514;13.458;2022-10-31T03:43:55;55.70;35.27;73.92;;
71230;Laerm;57282;52.514;13.458;2022-10-31T03:46:24;55.39;35.80;69.92;;
71230;Laerm;57282;52.514;13.458;2022-10-31T03:48:52;51.74;37.49;69.42;;
71230;Laerm;57282;52.514;13.458;2022-10-31T03:51:26;55.85;37.49;73.75;;
71230;Laerm;57282;52.514;13.458;2022-10-31T03:54:02;63.64;35.80;80.49;;
71230;Laerm;57282;52.514;13.458;2022-10-31T03:56:37;57.81;37.11;73.75;;
71230;Laerm;57282;52.514;13.458;2022-10-31T03:59:15;60.18;37.98;73.47;;
71230;Laerm;57282;52.514;13.458;2022-10-31T04:01:50;53.48;36.95;70.27;;
71230;Laerm;57282;52.514;13.458;2022-10-31T04:04:20;56.56;36.95;75.51;;
71230;Laerm;57282;52.514;13.458;2022-10-31T04:06:49;44.28;35.26;63.92;;
71230;Laerm;57282;52.514;13.458;2022-10-31T04:09:19;60.04;38.28;76.60;;
71230;Laerm;57282;52.514;13.458;2022-10-31T04:11:51;57.12;36.51;72.65;;
71230;Laerm;57282;52.514;13.458;2022-10-31T04:14:22;60.08;38.36;74.36;;
71230;Laerm;57282;52.514;13.458;2022-10-31T04:16:50;58.40;35.99;73.60;;
71230;Laerm;57282;52.514;13.458;2022-10-31T04:19:17;59.95;38.96;75.59;;
71230;Laerm;57282;52.514;13.458;2022-10-31T04:21:44;53.93;39.00;71.72;;
71230;Laerm;57282;52.514;13.458;2022-10-31T04:24:11;63.78;37.27;80.46;;
71230;Laerm;57282;52.514;13.458;2022-10-31T04:26:38;58.77;41.53;73.76;;
71230;Laerm;57282;52.514;13.458;2022-10-31T04:29:04;61.51;37.03;77.12;;
71230;Laerm;57282;52.514;13.458;2022-10-31T04:31:31;61.59;41.28;75.40;;
71230;Laerm;57282;52.514;13.458;2022-10-31T04:33:58;59.36;41.36;70.92;;
71230;Laerm;57282;52.514;13.458;2022-10-31T04:36:24;62.01;38.75;79.18;;
71230;Laerm;57282;52.514;13.458;2022-10-31T04:38:52;64.32;40.95;76.92;;
71230;Laerm;57282;52.514;13.458;2022-10-31T04:41:19;64.79;42.84;76.10;;
71230;Laerm;57282;52.514;13.458;2022-10-31T04:43:45;57.20;39.94;73.68;;
71230;Laerm;57282;52.514;13.458;2022-10-31T04:46:12;61.05;39.60;74.54;;
71230;Laerm;57282;52.514;13.458;2022-10-31T04:48:39;61.24;40.98;74.18;;
71230;Laerm;57282;52.514;13.458;2022-10-31T04:51:05;63.80;41.36;79.56;;
71230;Laerm;57282;52.514;13.458;2022-10-31T04:53:32;64.07;41.29;77.19;;
71230;Laerm;57282;52.514;13.458;2022-10-31T04:56:00;56.95;38.21;75.08;;
71230;Laerm;57282;52.514;13.458;2022-10-31T04:58:27;64.05;42.20;82.87;;
71230;Laerm;57282;52.514;13.458;2022-10-31T05:00:55;63.81;41.51;76.25;;
71230;Laerm;57282;52.514;13.458;2022-10-31T05:03:21;57.26;38.53;73.46;;
71230;Laerm;57282;52.514;13.458;2022-10-31T05:05:49;61.33;41.04;83.51;;
71230;Laerm;57282;52.514;13.458;2022-10-31T05:08:16;62.84;40.67;77.66;;
71230;Laerm;57282;52.514;13.458;2022-10-31T05:10:42;62.34;47.11;73.63;;
71230;Laerm;57282;52.514;13.458;2022-10-31T05:13:10;65.63;49.48;80.22;;
71230;Laerm;57282;52.514;13.458;2022-10-31T05:15:37;63.78;50.00;77.75;;
71230;Laerm;57282;52.514;13.458;2022-10-31T05:18:04;63.22;51.92;74.85;;
71230;Laerm;57282;52.514;13.458;2022-10-31T05:20:31;61.54;50.88;72.85;;
71230;Laerm;57282;52.514;13.458;2022-10-31T05:22:59;68.45;55.94;87.11;;
71230;Laerm;57282;52.514;13.458;2022-10-31T05:25:28;67.10;57.93;79.59;;
71230;Laerm;57282;52.514;13.458;2022-10-31T05:27:56;68.95;57.93;89.85;;
71230;Laerm;57282;52.514;13.458;2022-10-31T05:30:28;67.49;54.64;85.19;;
71230;Laerm;57282;52.514;13.458;2022-10-31T05:32:55;62.98;48.65;75.45;;
71230;Laerm;57282;52.514;13.458;2022-10-31T05:35:25;59.54;48.28;71.32;;
71230;Laerm;57282;52.514;13.458;2022-10-31T05:37:52;62.56;47.85;78.78;;
71230;Laerm;57282;52.514;13.458;2022-10-31T05:40:20;66.08;46.67;75.11;;
71230;Laerm;57282;52.514;13.458;2022-10-31T05:42:51;66.41;47.09;78.02;;
71230;Laerm;57282;52.514;13.458;2022-10-31T05:45:19;63.09;43.52;78.58;;
71230;Laerm;57282;52.514;13.458;2022-10-31T05:47:52;59.68;41.31;76.32;;
71230;Laerm;57282;52.514;13.458;2022-10-31T05:50:19;65.81;42.82;85.51;;
71230;Laerm;57282;52.514;13.458;2022-10-31T05:52:46;65.82;44.47;80.30;;
71230;Laerm;57282;52.514;13.458;2022-10-31T05:55:13;62.67;44.52;76.10;;
71230;Laerm;57282;52.514;13.458;2022-10-31T05:57:39;61.98;41.46;76.05;;
71230;Laerm;57282;52.514;13.458;2022-10-31T06:00:08;62.29;44.01;77.08;;
71230;Laerm;57282;52.514;13.458;2022-10-31T06:02:35;65.29;45.60;77.52;;
71230;Laerm;57282;52.514;13.458;2022-10-31T06:05:03;65.87;43.27;78.85;;
71230;Laerm;57282;52.514;13.458;2022-10-31T06:07:32;63.66;45.42;76.01;;
71230;Laerm;57282;52.514;13.458;2022-10-31T06:09:59;63.66;49.43;84.62;;
71230;Laerm;57282;52.514;13.458;2022-10-31T06:12:26;64.17;48.86;79.88;;
71230;Laerm;57282;52.514;13.458;2022-10-31T06:14:53;62.64;49.27;77.85;;
71230;Laerm;57282;52.514;13.458;2022-10-31T06:17:19;66.61;53.45;80.91;;
71230;Laerm;57282;52.514;13.458;2022-10-31T06:19:46;66.12;59.68;84.53;;
71230;Laerm;57282;52.514;13.458;2022-10-31T06:22:14;69.01;59.91;89.60;;
71230;Laerm;57282;52.514;13.458;2022-10-31T06:24:40;63.26;52.85;73.67;;
71230;Laerm;57282;52.514;13.458;2022-10-31T06:27:07;63.27;52.98;74.69;;
71230;Laerm;57282;52.514;13.458;2022-10-31T06:29:34;64.91;48.67;88.30;;
71230;Laerm;57282;52.514;13.458;2022-10-31T06:32:00;64.15;49.68;83.82;;
71230;Laerm;57282;52.514;13.458;2022-10-31T06:34:27;64.84;55.91;76.27;;
71230;Laerm;57282;52.514;13.458;2022-10-31T06:36:53;66.97;58.24;78.54;;
71230;Laerm;57282;52.514;13.458;2022-10-31T06:39:21;67.21;56.71;78.36;;
71230;Laerm;57282;52.514;13.458;2022-10-31T06:41:48;70.57;64.16;83.33;;
71230;Laerm;57282;52.514;13.458;2022-10-31T06:44:15;70.11;58.49;82.31;;
71230;Laerm;57282;52.514;13.458;2022-10-31T06:46:41;66.88;48.84;79.86;;
71230;Laerm;57282;52.514;13.458;2022-10-31T06:49:08;65.30;51.07;76.52;;
71230;Laerm;57282;52.514;13.458;2022-10-31T06:51:35;59.25;48.42;72.81;;
71230;Laerm;57282;52.514;13.458;2022-10-31T06:54:01;64.71;47.72;79.21;;
71230;Laerm;57282;52.514;13.458;2022-10-31T06:56:29;64.20;50.46;73.58;;
71230;Laerm;57282;52.514;13.458;2022-10-31T06:58:56;66.07;56.93;78.40;;
71230;Laerm;57282;52.514;13.458;2022-10-31T07:01:22;68.98;52.22;89.29;;
71230;Laerm;57282;52.514;13.458;2022-10-31T07:03:49;66.60;53.52;77.24;;
71230;Laerm;57282;52.514;13.458;2022-10-31T07:06:16;61.97;47.38;73.33;;
71230;Laerm;57282;52.514;13.458;2022-10-31T07:08:42;64.43;44.94;74.86;;
71230;Laerm;57282;52.514;13.458;2022-10-31T07:11:09;65.84;46.59;75.80;;
71230;Laerm;57282;52.514;13.458;2022-10-31T07:13:37;65.66;49.86;76.67;;
71230;Laerm;57282;52.514;13.458;2022-10-31T07:16:05;67.74;47.55;87.30;;
71230;Laerm;57282;52.514;13.458;2022-10-31T07:18:33;66.84;45.31;78.72;;
71230;Laerm;57282;52.514;13.458;2022-10-31T07:20:59;65.68;48.47;79.03;;
71230;Laerm;57282;52.514;13.458;2022-10-31T07:23:26;67.22;48.58;80.20;;
71230;Laerm;57282;52.514;13.458;2022-10-31T07:25:55;64.67;44.95;79.24;;
71230;Laerm;57282;52.514;13.458;2022-10-31T07:28:22;64.05;46.69;78.56;;
71230;Laerm;57282;52.514;13.458;2022-10-31T07:30:52;63.35;44.73;76.44;;
71230;Laerm;57282;52.514;13.458;2022-10-31T07:33:19;67.14;46.02;81.69;;
71230;Laerm;57282;52.514;13.458;2022-10-31T07:35:46;65.06;44.25;76.29;;
71230;Laerm;57282;52.514;13.458;2022-10-31T07:38:14;64.27;44.54;79.62;;
71230;Laerm;57282;52.514;13.458;2022-10-31T07:40:42;64.67;48.30;75.21;;
71230;Laerm;57282;52.514;13.458;2022-10-31T07:43:11;65.29;44.90;75.09;;
71230;Laerm;57282;52.514;13.458;2022-10-31T07:45:37;65.37;45.39;74.99;;
71230;Laerm;57282;52.514;13.458;2022-10-31T07:48:06;65.04;45.73;77.94;;
71230;Laerm;57282;52.514;13.458;2022-10-31T07:50:33;66.61;51.53;76.79;;
71230;Laerm;57282;52.514;13.458;2022-10-31T07:53:01;67.17;46.43;76.74;;
71230;Laerm;57282;52.514;13.458;2022-10-31T07:55:29;64.11;46.61;74.23;;
71230;Laerm;57282;52.514;13.458;2022-10-31T07:57:57;62.46;45.07;75.80;;
71230;Laerm;57282;52.514;13.458;2022-10-31T08:00:24;62.84;47.48;73.22;;
71230;Laerm;57282;52.514;13.458;2022-10-31T08:02:57;65.64;47.52;75.55;;
71230;Laerm;57282;52.514;13.458;2022-10-31T08:05:25;65.70;46.56;77.07;;
71230;Laerm;57282;52.514;13.458;2022-10-31T08:07:52;66.98;46.51;78.70;;
71230;Laerm;57282;52.514;13.458;2022-10-31T08:10:20;65.63;47.59;76.07;;
71230;Laerm;57282;52.514;13.458;2022-10-31T08:12:47;65.44;50.27;79.03;;
71230;Laerm;57282;52.514;13.458;2022-10-31T08:15:20;64.07;49.96;74.42;;
71230;Laerm;57282;52.514;13.458;2022-10-31T08:17:47;64.71;45.29;78.48;;
71230;Laerm;57282;52.514;13.458;2022-10-31T08:20:14;64.74;47.85;77.16;;
71230;Laerm;57282;52.514;13.458;2022-10-31T08:22:42;64.49;43.76;75.79;;
71230;Laerm;57282;52.514;13.458;2022-10-31T08:25:09;64.08;47.80;73.63;;
71230;Laerm;57282;52.514;13.458;2022-10-31T08:27:35;70.80;56.85;85.43;;
71230;Laerm;57282;52.514;13.458;2022-10-31T08:30:03;69.62;57.04;85.77;;
71230;Laerm;57282;52.514;13.458;2022-10-31T08:32:30;66.22;56.34;76.50;;
71230;Laerm;57282;52.514;13.458;2022-10-31T08:34:56;66.76;57.61;85.08;;
71230;Laerm;57282;52.514;13.458;2022-10-31T08:37:24;65.49;56.89;77.73;;
71230;Laerm;57282;52.514;13.458;2022-10-31T08:39:51;63.50;55.34;75.09;;
71230;Laerm;57282;52.514;13.458;2022-10-31T08:42:18;63.83;50.02;76.39;;
71230;Laerm;57282;52.514;13.458;2022-10-31T08:44:45;64.88;45.31;76.84;;
71230;Laerm;57282;52.514;13.458;2022-10-31T08:47:11;64.74;50.63;74.54;;
71230;Laerm;57282;52.514;13.458;2022-10-31T08:49:38;65.22;53.30;75.36;;
71230;Laerm;57282;52.514;13.458;2022-10-31T08:52:04;66.43;54.74;77.87;;
71230;Laerm;57282;52.514;13.458;2022-10-31T08:54:31;65.84;54.30;80.98;;
71230;Laerm;57282;52.514;13.458;2022-10-31T08:56:59;65.94;48.29;77.59;;
71230;Laerm;57282;52.514;13.458;2022-10-31T08:59:26;66.62;48.60;80.27;;
71230;Laerm;57282;52.514;13.458;2022-10-31T09:01:52;64.21;49.00;74.40;;
71230;Laerm;57282;52.514;13.458;2022-10-31T09:04:19;63.70;50.67;72.58;;
71230;Laerm;57282;52.514;13.458;2022-10-31T09:06:45;67.85;48.89;81.27;;
71230;Laerm;57282;52.514;13.458;2022-10-31T09:09:12;67.28;56.62;78.27;;
71230;Laerm;57282;52.514;13.458;2022-10-31T09:11:39;67.09;45.82;78.11;;
71230;Laerm;57282;52.514;13.458;2022-10-31T09:14:07;65.01;55.36;79.93;;
71230;Laerm;57282;52.514;13.458;2022-10-31T09:16:33;63.85;55.55;78.29;;
71230;Laerm;57282;52.514;13.458;2022-10-31T09:19:00;64.66;57.10;83.25;;
71230;Laerm;57282;52.514;13.458;2022-10-31T09:21:26;64.58;48.01;77.24;;
71230;Laerm;57282;52.514;13.458;2022-10-31T09:23:53;64.53;46.79;77.99;;
71230;Laerm;57282;52.514;13.458;2022-10-31T09:26:20;61.88;43.60;76.44;;
71230;Laerm;57282;52.514;13.458;2022-10-31T09:28:47;63.52;46.54;76.49;;
71230;Laerm;57282;52.514;13.458;2022-10-31T09:31:14;64.64;43.15;76.61;;
71230;Laerm;57282;52.514;13.458;2022-10-31T09:33:41;64.99;53.36;75.73;;
71230;Laerm;57282;52.514;13.458;2022-10-31T09:36:08;64.10;45.52;76.78;;
71230;Laerm;57282;52.514;13.458;2022-10-31T09:38:35;66.37;45.37;77.99;;
71230;Laerm;57282;52.514;13.458;2022-10-31T09:41:19;61.79;46.03;78.31;;
71230;Laerm;57282;52.514;13.458;2022-10-31T09:43:56;65.37;46.80;77.52;;
71230;Laerm;57282;52.514;13.458;2022-10-31T09:46:38;66.03;47.59;78.25;;
71230;Laerm;57282;52.514;13.458;2022-10-31T09:49:34;64.54;43.52;78.09;;
71230;Laerm;57282;52.514;13.458;2022-10-31T09:52:11;66.02;46.43;81.48;;
71230;Laerm;57282;52.514;13.458;2022-10-31T09:54:47;66.17;43.76;77.32;;
71230;Laerm;57282;52.514;13.458;2022-10-31T09:57:23;64.88;49.32;75.89;;
71230;Laerm;57282;52.514;13.458;2022-10-31T09:59:51;65.21;44.04;76.02;;
71230;Laerm;57282;52.514;13.458;2022-10-31T10:02:25;63.97;48.56;78.32;;
71230;Laerm;57282;52.514;13.458;2022-10-31T10:04:57;62.46;47.51;73.01;;
71230;Laerm;57282;52.514;13.458;2022-10-31T10:07:35;64.26;47.03;78.42;;
71230;Laerm;57282;52.514;13.458;2022-10-31T10:10:15;65.53;42.97;81.69;;
71230;Laerm;57282;52.514;13.458;2022-10-31T10:13:05;64.78;47.66;78.66;;
71230;Laerm;57282;52.514;13.458;2022-10-31T10:15:57;63.19;44.98;73.53;;
71230;Laerm;57282;52.514;13.458;2022-10-31T10:18:42;64.86;45.96;78.33;;
71230;Laerm;57282;52.514;13.458;2022-10-31T10:21:27;64.33;45.74;76.80;;
71230;Laerm;57282;52.514;13.458;2022-10-31T10:24:12;62.70;45.47;73.65;;
71230;Laerm;57282;52.514;13.458;2022-10-31T10:26:55;65.87;47.12;82.07;;
71230;Laerm;57282;52.514;13.458;2022-10-31T10:29:36;64.69;48.53;78.74;;
71230;Laerm;57282;52.514;13.458;2022-10-31T10:32:12;63.98;50.98;77.85;;
71230;Laerm;57282;52.514;13.458;2022-10-31T10:34:47;63.19;52.36;71.79;;
71230;Laerm;57282;52.514;13.458;2022-10-31T10:37:24;63.50;56.85;75.64;;
71230;Laerm;57282;52.514;13.458;2022-10-31T10:40:07;63.09;54.00;74.81;;
71230;Laerm;57282;52.514;13.458;2022-10-31T10:42:34;61.34;50.05;77.66;;
71230;Laerm;57282;52.514;13.458;2022-10-31T10:45:20;62.30;46.60;75.25;;
71230;Laerm;57282;52.514;13.458;2022-10-31T10:48:16;64.88;46.20;85.98;;
71230;Laerm;57282;52.514;13.458;2022-10-31T10:50:50;60.42;46.25;75.59;;
71230;Laerm;57282;52.514;13.458;2022-10-31T10:53:37;62.26;46.41;74.02;;
71230;Laerm;57282;52.514;13.458;2022-10-31T10:56:20;64.39;53.94;77.74;;
71230;Laerm;57282;52.514;13.458;2022-10-31T10:58:54;63.50;46.75;74.82;;
71230;Laerm;57282;52.514;13.458;2022-10-31T11:01:22;65.36;46.62;76.28;;
71230;Laerm;57282;52.514;13.458;2022-10-31T11:03:49;60.00;45.73;75.09;;
71230;Laerm;57282;52.514;13.458;2022-10-31T11:06:21;66.43;47.67;80.43;;
71230;Laerm;57282;52.514;13.458;2022-10-31T11:08:51;63.34;47.15;77.54;;
71230;Laerm;57282;52.514;13.458;2022-10-31T11:11:25;68.45;49.71;83.87;;
71230;Laerm;57282;52.514;13.458;2022-10-31T11:14:03;64.34;46.29;79.44;;
71230;Laerm;57282;52.514;13.458;2022-10-31T11:16:35;65.74;46.48;75.38;;
71230;Laerm;57282;52.514;13.458;2022-10-31T11:19:14;63.02;47.08;74.37;;
71230;Laerm;57282;52.514;13.458;2022-10-31T11:21:44;60.56;49.74;73.05;;
71230;Laerm;57282;52.514;13.458;2022-10-31T11:24:17;65.28;50.21;79.23;;
71230;Laerm;57282;52.514;13.458;2022-10-31T11:26:46;65.82;51.70;82.20;;
71230;Laerm;57282;52.514;13.458;2022-10-31T11:29:16;63.08;54.66;72.40;;
71230;Laerm;57282;52.514;13.458;2022-10-31T11:31:45;65.08;55.42;80.35;;
71230;Laerm;57282;52.514;13.458;2022-10-31T11:34:26;63.83;54.27;78.55;;
71230;Laerm;57282;52.514;13.458;2022-10-31T11:37:09;64.73;54.93;76.60;;
71230;Laerm;57282;52.514;13.458;2022-10-31T11:39:41;65.25;54.19;75.53;;
71230;Laerm;57282;52.514;13.458;2022-10-31T11:42:09;64.68;52.95;76.08;;
71230;Laerm;57282;52.514;13.458;2022-10-31T11:44:42;62.69;54.52;72.93;;
71230;Laerm;57282;52.514;13.458;2022-10-31T11:47:16;64.19;47.58;76.68;;
71230;Laerm;57282;52.514;13.458;2022-10-31T11:49:46;64.41;46.07;77.25;;
71230;Laerm;57282;52.514;13.458;2022-10-31T11:52:20;65.51;52.81;75.84;;
71230;Laerm;57282;52.514;13.458;2022-10-31T11:54:54;61.71;46.72;77.88;;
71230;Laerm;57282;52.514;13.458;2022-10-31T11:57:27;62.86;46.93;73.66;;
71230;Laerm;57282;52.514;13.458;2022-10-31T11:59:57;63.80;53.79;80.51;;
71230;Laerm;57282;52.514;13.458;2022-10-31T12:02:24;64.53;46.04;88.19;;
71230;Laerm;57282;52.514;13.458;2022-10-31T12:05:02;65.12;47.61;76.21;;
71230;Laerm;57282;52.514;13.458;2022-10-31T12:07:32;61.87;45.67;83.17;;
71230;Laerm;57282;52.514;13.458;2022-10-31T12:09:59;62.79;45.00;76.68;;
71230;Laerm;57282;52.514;13.458;2022-10-31T12:12:51;62.43;47.05;77.59;;
71230;Laerm;57282;52.514;13.458;2022-10-31T12:15:38;64.93;46.39;75.83;;
71230;Laerm;57282;52.514;13.458;2022-10-31T12:18:39;63.59;48.38;76.65;;
71230;Laerm;57282;52.514;13.458;2022-10-31T12:21:26;65.21;47.71;75.82;;
71230;Laerm;57282;52.514;13.458;2022-10-31T12:24:18;63.72;47.65;75.58;;
71230;Laerm;57282;52.514;13.458;2022-10-31T12:27:13;63.95;46.92;86.05;;
71230;Laerm;57282;52.514;13.458;2022-10-31T12:30:06;62.63;43.53;86.75;;
71230;Laerm;57282;52.514;13.458;2022-10-31T12:33:01;64.68;48.56;80.44;;
71230;Laerm;57282;52.514;13.458;2022-10-31T12:35:50;62.54;47.76;73.38;;
71230;Laerm;57282;52.514;13.458;2022-10-31T12:38:54;65.21;48.37;87.66;;
71230;Laerm;57282;52.514;13.458;2022-10-31T12:41:52;63.77;46.63;90.01;;
71230;Laerm;57282;52.514;13.458;2022-10-31T12:45:15;63.70;45.10;85.19;;
71230;Laerm;57282;52.514;13.458;2022-10-31T12:48:23;64.69;52.23;87.71;;
71230;Laerm;57282;52.514;13.458;2022-10-31T12:51:05;60.95;49.25;71.82;;
71230;Laerm;57282;52.514;13.458;2022-10-31T12:53:50;64.05;46.63;77.63;;
71230;Laerm;57282;52.514;13.458;2022-10-31T12:56:35;63.63;49.09;85.33;;
71230;Laerm;57282;52.514;13.458;2022-10-31T12:59:14;64.23;50.70;84.92;;
71230;Laerm;57282;52.514;13.458;2022-10-31T13:01:50;64.49;47.69;79.31;;
71230;Laerm;57282;52.514;13.458;2022-10-31T13:04:38;62.81;47.59;73.65;;
71230;Laerm;57282;52.514;13.458;2022-10-31T13:07:19;63.76;48.82;73.88;;
71230;Laerm;57282;52.514;13.458;2022-10-31T13:10:15;61.69;45.82;74.41;;
71230;Laerm;57282;52.514;13.458;2022-10-31T13:12:49;64.96;48.02;86.34;;
71230;Laerm;57282;52.514;13.458;2022-10-31T13:15:24;65.24;47.76;76.60;;
71230;Laerm;57282;52.514;13.458;2022-10-31T13:17:58;63.58;45.66;73.94;;
71230;Laerm;57282;52.514;13.458;2022-10-31T13:20:31;65.19;45.74;74.89;;
71230;Laerm;57282;52.514;13.458;2022-10-31T13:23:09;64.21;49.34;73.26;;
71230;Laerm;57282;52.514;13.458;2022-10-31T13:25:43;64.30;45.44;77.57;;
71230;Laerm;57282;52.514;13.458;2022-10-31T13:28:25;65.58;47.22;78.30;;
71230;Laerm;57282;52.514;13.458;2022-10-31T13:30:56;65.87;44.27;78.13;;
71230;Laerm;57282;52.514;13.458;2022-10-31T13:33:28;65.46;43.44;81.69;;
71230;Laerm;57282;52.514;13.458;2022-10-31T13:36:14;64.42;42.26;78.43;;
71230;Laerm;57282;52.514;13.458;2022-10-31T13:38:51;65.48;47.16;79.12;;
71230;Laerm;57282;52.514;13.458;2022-10-31T13:41:36;65.51;48.19;74.96;;
71230;Laerm;57282;52.514;13.458;2022-10-31T13:44:14;63.85;47.16;76.02;;
71230;Laerm;57282;52.514;13.458;2022-10-31T13:46:44;63.49;46.84;76.99;;
71230;Laerm;57282;52.514;13.458;2022-10-31T13:49:36;65.81;49.30;75.52;;
71230;Laerm;57282;52.514;13.458;2022-10-31T13:52:24;63.56;49.26;78.28;;
71230;Laerm;57282;52.514;13.458;2022-10-31T13:54:53;64.90;42.65;80.04;;
71230;Laerm;57282;52.514;13.458;2022-10-31T13:57:32;66.42;45.76;78.32;;
71230;Laerm;57282;52.514;13.458;2022-10-31T14:00:03;64.76;44.10;82.78;;
71230;Laerm;57282;52.514;13.458;2022-10-31T14:02:35;66.74;49.49;79.27;;